createdAt,value
2019-01-21T00:02:18.890Z,101008.89
2019-01-21T00:04:48.606Z,101012.50
2019-01-21T00:07:20.754Z,101012.25
2019-01-21T00:10:18.627Z,101011.91
2019-01-21T00:13:06.176Z,101000.55
2019-01-21T00:15:55.287Z,101000.63
2019-01-21T00:18:42.930Z,101005.39
2019-01-21T00:21:30.259Z,101007.23
2019-01-21T00:24:18.265Z,101012.86
2019-01-21T00:27:05.436Z,101010.94
2019-01-21T00:29:53.740Z,101008.70
2019-01-21T00:32:42.239Z,101003.11
2019-01-21T00:35:11.327Z,101005.05
2019-01-21T00:37:40.525Z,100997.86
2019-01-21T00:40:10.800Z,100988.77
2019-01-21T00:42:40.352Z,100991.80
2019-01-21T00:45:11.026Z,100991.94
2019-01-21T00:47:39.958Z,100983.30
2019-01-21T00:50:09.512Z,100989.72
2019-01-21T00:52:38.572Z,100995.50
2019-01-21T00:55:11.980Z,100995.78
2019-01-21T00:57:41.002Z,100998.31
2019-01-21T01:00:16.871Z,100997.10
2019-01-21T01:02:45.825Z,101002.05
2019-01-21T01:05:18.725Z,101004.58
2019-01-21T01:07:48.230Z,101007.59
2019-01-21T01:10:21.848Z,101015.27
2019-01-21T01:12:50.930Z,101014.11
2019-01-21T01:15:20.613Z,101018.91
2019-01-21T01:17:50.268Z,101021.35
2019-01-21T01:20:20.949Z,101020.20
2019-01-21T01:22:49.881Z,101017.96
2019-01-21T01:25:19.728Z,101018.34
2019-01-21T01:27:51.481Z,101026.60
2019-01-21T01:30:21.704Z,101031.16
2019-01-21T01:32:51.045Z,101026.52
2019-01-21T01:35:20.293Z,101025.14
2019-01-21T01:37:51.025Z,101017.20
2019-01-21T01:40:21.165Z,101023.41
2019-01-21T01:42:50.362Z,101028.46
2019-01-21T01:45:26.212Z,101025.16
2019-01-21T01:47:59.399Z,101025.36
2019-01-21T01:50:32.217Z,101022.83
2019-01-21T01:53:03.884Z,101025.34
2019-01-21T01:55:33.363Z,101025.62
2019-01-21T01:58:04.134Z,101024.56
2019-01-21T02:00:33.805Z,101027.27
2019-01-21T02:03:02.993Z,101027.84
2019-01-21T02:05:32.065Z,101027.17
2019-01-21T02:08:01.511Z,101030.48
2019-01-21T02:10:32.979Z,101030.01
2019-01-21T02:13:02.037Z,101035.34
2019-01-21T02:15:31.860Z,101032.81
2019-01-21T02:18:01.900Z,101040.13
2019-01-21T02:20:32.004Z,101039.70
2019-01-21T02:23:05.854Z,101036.82
2019-01-21T02:25:46.815Z,101039.34
2019-01-21T02:28:55.615Z,101037.64
2019-01-21T02:32:08.719Z,101041.80
2019-01-21T02:34:55.892Z,101047.98
2019-01-21T02:38:21.508Z,101046.23
2019-01-21T02:41:53.040Z,101037.48
2019-01-21T02:44:55.114Z,101038.38
2019-01-21T02:47:42.305Z,101037.20
2019-01-21T02:50:54.047Z,101040.09
2019-01-21T02:54:03.893Z,101043.02
2019-01-21T02:56:50.741Z,101045.19
2019-01-21T03:00:03.740Z,101034.13
2019-01-21T03:03:30.163Z,101034.30
2019-01-21T03:06:35.313Z,101025.22
2019-01-21T03:09:53.294Z,101029.36
2019-01-21T03:12:50.027Z,101034.02
2019-01-21T03:15:52.479Z,101029.32
2019-01-21T03:19:01.673Z,101029.28
2019-01-21T03:22:24.422Z,101017.94
2019-01-21T03:25:49.690Z,101015.41
2019-01-21T03:29:01.200Z,101010.10
2019-01-21T03:32:30.396Z,101016.77
2019-01-21T03:35:42.921Z,101024.05
2019-01-21T03:39:02.397Z,101019.09
2019-01-21T03:41:58.317Z,101021.88
2019-01-21T03:45:14.374Z,101021.38
2019-01-21T03:48:22.945Z,101016.28
2019-01-21T03:51:37.170Z,101026.35
2019-01-21T03:54:42.161Z,101020.55
2019-01-21T03:57:57.562Z,101024.23
2019-01-21T04:01:23.168Z,101026.58
2019-01-21T04:04:48.438Z,101024.89
2019-01-21T04:07:37.419Z,101030.02
2019-01-21T04:10:38.732Z,101029.02
2019-01-21T04:13:24.888Z,101028.09
2019-01-21T04:16:31.994Z,101032.41
2019-01-21T04:19:53.856Z,101032.97
2019-01-21T04:22:47.999Z,101032.72
2019-01-21T04:26:03.063Z,101026.59
2019-01-21T04:28:54.721Z,101019.05
2019-01-21T04:32:04.864Z,101019.20
2019-01-21T04:35:05.535Z,101021.94
2019-01-21T04:38:06.147Z,101020.95
2019-01-21T04:41:33.088Z,101023.47
2019-01-21T04:44:40.958Z,101023.86
2019-01-21T04:47:46.603Z,101029.05
2019-01-21T04:51:06.901Z,101029.02
2019-01-21T04:54:04.004Z,101030.45
2019-01-21T04:57:00.998Z,101029.29
2019-01-21T05:00:21.093Z,101030.92
2019-01-21T05:03:30.252Z,101025.41
2019-01-21T05:06:37.447Z,101022.77
2019-01-21T05:09:30.342Z,101022.58
2019-01-21T05:12:41.665Z,101023.16
2019-01-21T05:15:47.303Z,101017.63
2019-01-21T05:19:13.059Z,101012.29
2019-01-21T05:22:02.657Z,101014.31
2019-01-21T05:25:18.980Z,101015.66
2019-01-21T05:28:41.627Z,101005.59
2019-01-21T05:31:51.427Z,101003.31
2019-01-21T05:34:58.142Z,101001.45
2019-01-21T05:38:22.684Z,101000.64
2019-01-21T05:41:39.082Z,100998.28
2019-01-21T05:44:45.901Z,100997.05
2019-01-21T05:47:44.024Z,100999.66
2019-01-21T05:50:43.340Z,100996.75
2019-01-21T05:54:11.565Z,100991.34
2019-01-21T05:57:31.646Z,100994.08
2019-01-21T06:00:23.890Z,100996.70
2019-01-21T06:03:31.344Z,100998.19
2019-01-21T06:06:45.266Z,100998.45
2019-01-21T06:10:10.754Z,100991.30
2019-01-21T06:13:10.639Z,100994.84
2019-01-21T06:16:25.072Z,100998.36
2019-01-21T06:19:42.987Z,100999.08
2019-01-21T06:22:53.196Z,101002.86
2019-01-21T06:25:55.130Z,101003.75
2019-01-21T06:29:26.907Z,101008.19
2019-01-21T06:32:24.617Z,101008.28
2019-01-21T06:35:01.604Z,101019.06
2019-01-21T06:37:59.346Z,101020.11
2019-01-21T06:41:31.798Z,101025.47
2019-01-21T06:44:38.099Z,101035.48
2019-01-21T06:47:26.029Z,101041.50
2019-01-21T06:50:12.071Z,101048.28
2019-01-21T06:53:19.470Z,101041.73
2019-01-21T06:56:31.096Z,101036.52
2019-01-21T06:59:35.793Z,101028.97
2019-01-21T07:02:35.149Z,101026.84
2019-01-21T07:05:35.735Z,101044.88
2019-01-21T07:08:49.510Z,101043.92
2019-01-21T07:11:45.889Z,101046.48
2019-01-21T07:15:03.287Z,101046.06
2019-01-21T07:18:08.918Z,101050.86
2019-01-21T07:21:23.975Z,101049.88
2019-01-21T07:24:48.345Z,101048.75
2019-01-21T07:27:55.450Z,101049.67
2019-01-21T07:31:28.194Z,101057.72
2019-01-21T07:34:26.872Z,101067.08
2019-01-21T07:37:30.082Z,101064.40
2019-01-21T07:40:28.033Z,101063.40
2019-01-21T07:43:40.156Z,101067.00
2019-01-21T07:46:59.903Z,101072.81
2019-01-21T07:49:54.987Z,101072.06
2019-01-21T07:52:40.135Z,101075.99
2019-01-21T07:55:54.634Z,101080.08
2019-01-21T07:59:17.662Z,101082.16
2019-01-21T08:02:02.283Z,101077.23
2019-01-21T08:05:13.564Z,101075.05
2019-01-21T08:08:15.854Z,101080.48
2019-01-21T08:11:26.128Z,101091.13
2019-01-21T08:14:20.527Z,101098.25
2019-01-21T08:17:52.631Z,101107.50
2019-01-21T08:20:57.590Z,101101.64
2019-01-21T08:23:57.254Z,101096.71
2019-01-21T08:27:12.787Z,101098.04
2019-01-21T08:30:19.026Z,101099.04
2019-01-21T08:33:14.623Z,101098.80
2019-01-21T08:35:57.813Z,101105.77
2019-01-21T08:39:38.927Z,101098.34
2019-01-21T08:42:57.857Z,101097.97
2019-01-21T08:46:09.403Z,101109.07
2019-01-21T08:49:39.105Z,101103.69
2019-01-21T08:52:37.225Z,101100.83
2019-01-21T08:55:59.756Z,101099.38
2019-01-21T08:59:16.117Z,101088.57
2019-01-21T09:02:41.486Z,101085.17
2019-01-21T09:05:35.410Z,101082.62
2019-01-21T09:08:44.933Z,101083.84
2019-01-21T09:11:50.177Z,101081.23
2019-01-21T09:15:23.124Z,101088.27
2019-01-21T09:18:14.639Z,101092.48
2019-01-21T09:21:14.788Z,101086.88
2019-01-21T09:24:06.608Z,101084.16
2019-01-21T09:27:13.297Z,101079.89
2019-01-21T09:30:19.841Z,101090.86
2019-01-21T09:33:51.092Z,101097.48
2019-01-21T09:36:41.248Z,101106.78
2019-01-21T09:39:43.031Z,101110.28
2019-01-21T09:43:14.931Z,101105.89
2019-01-21T09:46:14.822Z,101104.95
2019-01-21T09:48:45.377Z,101095.09
2019-01-21T09:51:15.413Z,101090.00
2019-01-21T09:53:53.289Z,101070.63
2019-01-21T09:56:23.855Z,101079.51
2019-01-21T09:58:57.548Z,101086.80
2019-01-21T10:01:27.020Z,101084.14
2019-01-21T10:03:58.281Z,101078.23
2019-01-21T10:06:42.979Z,101079.59
2019-01-21T10:10:00.298Z,101071.89
2019-01-21T10:13:41.676Z,101074.91
2019-01-21T10:16:30.073Z,101073.42
2019-01-21T10:19:27.264Z,101061.98
2019-01-21T10:22:53.231Z,101058.65
2019-01-21T10:26:22.198Z,101057.91
2019-01-21T10:29:19.945Z,101050.37
2019-01-21T10:32:38.607Z,101032.62
2019-01-21T10:35:32.194Z,101027.28
2019-01-21T10:38:51.788Z,101032.09
2019-01-21T10:41:59.007Z,101044.22
2019-01-21T10:44:53.337Z,101045.61
2019-01-21T10:47:49.233Z,101045.36
2019-01-21T10:50:48.386Z,101047.25
2019-01-21T10:53:37.005Z,101047.36
2019-01-21T10:56:34.704Z,101035.11
2019-01-21T10:59:55.558Z,101034.05
2019-01-21T11:03:01.113Z,101039.77
2019-01-21T11:06:27.058Z,101035.32
2019-01-21T11:09:26.640Z,101023.92
2019-01-21T11:12:59.369Z,101024.66
2019-01-21T11:16:03.820Z,101017.66
2019-01-21T11:19:04.078Z,101012.52
2019-01-21T11:21:51.359Z,101016.19
2019-01-21T11:25:03.632Z,101012.34
2019-01-21T11:28:04.749Z,101012.34
2019-01-21T11:31:19.022Z,101014.59
2019-01-21T11:34:43.905Z,101009.25
2019-01-21T11:37:59.529Z,101009.25
2019-01-21T11:40:46.302Z,101010.06
2019-01-21T11:43:56.742Z,101016.77
2019-01-21T11:46:51.819Z,101011.84
2019-01-21T11:49:33.881Z,101016.10
2019-01-21T11:52:44.488Z,101008.02
2019-01-21T11:55:55.730Z,100983.95
2019-01-21T11:59:15.230Z,100983.95
2019-01-21T12:02:31.101Z,100977.58
2019-01-21T12:05:46.869Z,100977.58
2019-01-21T12:08:54.810Z,100967.92
2019-01-21T12:12:03.991Z,100964.50
2019-01-21T12:15:10.624Z,100957.66
2019-01-21T12:18:16.110Z,100957.66
2019-01-21T12:21:13.206Z,100955.91
2019-01-21T12:24:04.573Z,100955.91
2019-01-21T12:26:52.211Z,100944.59
2019-01-21T12:30:22.210Z,100949.20
2019-01-21T12:33:32.145Z,100949.20
2019-01-21T12:36:24.259Z,100955.55
2019-01-21T12:39:30.326Z,100948.73
2019-01-21T12:42:26.020Z,100938.48
2019-01-21T12:45:37.703Z,100938.96
2019-01-21T12:49:00.933Z,100932.53
2019-01-21T12:51:56.778Z,100932.53
2019-01-21T12:55:17.709Z,100921.16
2019-01-21T12:58:14.045Z,100916.51
2019-01-21T13:01:27.827Z,100910.86
2019-01-21T13:04:38.146Z,100914.10
2019-01-21T13:08:10.608Z,100908.13
2019-01-21T13:11:20.948Z,100902.86
2019-01-21T13:14:34.041Z,100899.25
2019-01-21T13:17:42.892Z,100892.20
2019-01-21T13:20:56.560Z,100893.75
2019-01-21T13:24:07.374Z,100894.02
2019-01-21T13:27:08.589Z,100887.95
2019-01-21T13:30:04.167Z,100882.16
2019-01-21T13:33:01.846Z,100885.34
2019-01-21T13:35:44.588Z,100882.95
2019-01-21T13:38:55.503Z,100881.39
2019-01-21T13:41:58.016Z,100879.00
2019-01-21T13:45:05.797Z,100882.81
2019-01-21T13:47:59.918Z,100872.59
2019-01-21T13:50:55.267Z,100866.00
2019-01-21T13:54:02.884Z,100867.52
2019-01-21T13:57:14.775Z,100862.97
2019-01-21T14:00:09.696Z,100859.09
2019-01-21T14:03:14.095Z,100866.85
2019-01-21T14:06:37.847Z,100862.99
2019-01-21T14:09:48.178Z,100856.97
2019-01-21T14:12:43.418Z,100851.81
2019-01-21T14:15:46.777Z,100848.39
2019-01-21T14:18:53.073Z,100847.02
2019-01-21T14:21:51.434Z,100842.66
2019-01-21T14:24:48.813Z,100838.51
2019-01-21T14:27:58.410Z,100845.97
2019-01-21T14:31:09.795Z,100838.05
2019-01-21T14:34:05.003Z,100833.81
2019-01-21T14:37:13.261Z,100824.23
2019-01-21T14:40:07.946Z,100827.15
2019-01-21T14:43:17.096Z,100811.88
2019-01-21T14:46:23.191Z,100807.61
2019-01-21T14:49:22.491Z,100793.00
2019-01-21T14:52:27.619Z,100798.94
2019-01-21T14:55:20.405Z,100795.21
2019-01-21T14:58:21.038Z,100793.26
2019-01-21T15:01:24.581Z,100788.86
2019-01-21T15:04:40.058Z,100780.22
2019-01-21T15:07:56.308Z,100774.55
2019-01-21T15:11:08.565Z,100783.49
2019-01-21T15:14:08.865Z,100772.42
2019-01-21T15:17:23.306Z,100765.06
2019-01-21T15:20:25.135Z,100772.99
2019-01-21T15:23:40.299Z,100772.99
2019-01-21T15:26:27.035Z,100781.95
2019-01-21T15:29:45.147Z,100781.95
2019-01-21T15:32:51.436Z,100782.92
2019-01-21T15:36:06.713Z,100783.27
2019-01-21T15:39:16.499Z,100774.81
2019-01-21T15:42:13.513Z,100781.50
2019-01-21T15:45:26.336Z,100779.57
2019-01-21T15:48:52.231Z,100779.78
2019-01-21T15:52:06.647Z,100786.15
2019-01-21T15:54:51.467Z,100785.45
2019-01-21T15:57:57.632Z,100784.12
2019-01-21T16:01:34.639Z,100788.11
2019-01-21T16:04:34.535Z,100793.23
2019-01-21T16:07:29.741Z,100797.44
2019-01-21T16:10:20.440Z,100800.09
2019-01-21T16:13:26.792Z,100797.34
2019-01-21T16:16:31.286Z,100797.62
2019-01-21T16:19:15.265Z,100791.62
2019-01-21T16:22:31.012Z,100785.98
2019-01-21T16:25:34.614Z,100785.75
2019-01-21T16:28:53.250Z,100783.98
2019-01-21T16:31:55.869Z,100776.61
2019-01-21T16:34:50.348Z,100777.64
2019-01-21T16:37:57.405Z,100775.17
2019-01-21T16:41:12.027Z,100778.92
2019-01-21T16:43:42.619Z,100770.15
2019-01-21T16:46:17.526Z,100768.17
2019-01-21T16:48:53.736Z,100768.84
2019-01-21T16:51:23.203Z,100773.83
2019-01-21T16:53:52.528Z,100770.98
2019-01-21T16:56:21.334Z,100770.43
2019-01-21T16:58:53.510Z,100777.25
2019-01-21T17:01:33.377Z,100769.48
2019-01-21T17:04:08.748Z,100766.00
2019-01-21T17:06:39.498Z,100764.02
2019-01-21T17:09:15.019Z,100768.28
2019-01-21T17:11:44.002Z,100760.05
2019-01-21T17:14:14.232Z,100765.53
2019-01-21T17:16:44.315Z,100768.30
2019-01-21T17:19:14.022Z,100764.36
2019-01-21T17:21:43.398Z,100757.64
2019-01-21T17:24:15.495Z,100759.45
2019-01-21T17:26:48.130Z,100759.99
2019-01-21T17:29:17.252Z,100756.44
2019-01-21T17:31:46.512Z,100751.55
2019-01-21T17:34:15.791Z,100747.50
2019-01-21T17:36:45.031Z,100745.57
2019-01-21T17:39:17.968Z,100742.05
2019-01-21T17:41:51.364Z,100745.34
2019-01-21T17:44:24.070Z,100742.02
2019-01-21T17:46:53.924Z,100735.99
2019-01-21T17:49:23.088Z,100735.95
2019-01-21T17:51:52.131Z,100738.17
2019-01-21T17:54:34.636Z,100728.27
2019-01-21T17:57:00.029Z,100727.00
2019-01-21T17:59:31.663Z,100730.50
2019-01-21T18:02:02.815Z,100730.53
2019-01-21T18:04:43.593Z,100732.44
2019-01-21T18:07:15.286Z,100726.22
2019-01-21T18:09:44.893Z,100725.39
2019-01-21T18:12:20.261Z,100725.17
2019-01-21T18:14:58.320Z,100727.23
2019-01-21T18:17:35.051Z,100728.42
2019-01-21T18:20:06.640Z,100721.33
2019-01-21T18:22:36.697Z,100722.98
2019-01-21T18:25:12.231Z,100728.36
2019-01-21T18:27:41.706Z,100717.67
2019-01-21T18:30:19.965Z,100716.72
2019-01-21T18:32:52.895Z,100726.16
2019-01-21T18:35:23.042Z,100717.83
2019-01-21T18:37:58.891Z,100722.42
2019-01-21T18:40:30.692Z,100719.66
2019-01-21T18:43:03.189Z,100704.64
2019-01-21T18:45:32.872Z,100702.90
2019-01-21T18:48:07.646Z,100706.28
2019-01-21T18:50:37.418Z,100706.44
2019-01-21T18:53:09.098Z,100706.05
2019-01-21T18:55:40.507Z,100701.36
2019-01-21T18:58:20.612Z,100697.09
2019-01-21T19:01:00.089Z,100698.44
2019-01-21T19:03:37.590Z,100694.52
2019-01-21T19:06:12.439Z,100694.04
2019-01-21T19:08:43.909Z,100692.62
2019-01-21T19:11:18.610Z,100692.41
2019-01-21T19:13:50.922Z,100687.33
2019-01-21T19:16:22.052Z,100688.45
2019-01-21T19:18:57.207Z,100691.30
2019-01-21T19:21:30.174Z,100688.18
2019-01-21T19:24:03.519Z,100692.58
2019-01-21T19:26:32.653Z,100684.19
2019-01-21T19:29:02.251Z,100682.64
2019-01-21T19:31:33.969Z,100684.85
2019-01-21T19:34:04.415Z,100673.54
2019-01-21T19:36:37.155Z,100673.95
2019-01-21T19:39:17.373Z,100683.28
2019-01-21T19:41:53.432Z,100679.25
2019-01-21T19:44:30.066Z,100679.76
2019-01-21T19:47:12.052Z,100667.53
2019-01-21T19:49:45.535Z,100669.39
2019-01-21T19:52:22.358Z,100660.37
2019-01-21T19:55:04.249Z,100662.20
2019-01-21T19:57:35.256Z,100661.64
2019-01-21T20:00:06.769Z,100656.02
2019-01-21T20:02:39.830Z,100656.58
2019-01-21T20:05:10.840Z,100652.47
2019-01-21T20:07:46.486Z,100651.83
2019-01-21T20:10:24.455Z,100652.47
2019-01-21T20:12:55.668Z,100655.30
2019-01-21T20:15:25.132Z,100653.72
2019-01-21T20:18:01.082Z,100654.04
2019-01-21T20:20:35.870Z,100646.92
2019-01-21T20:23:14.562Z,100635.48
2019-01-21T20:25:47.783Z,100637.31
2019-01-21T20:28:29.682Z,100636.75
2019-01-21T20:31:04.261Z,100637.39
2019-01-21T20:33:40.531Z,100640.31
2019-01-21T20:36:14.340Z,100644.30
2019-01-21T20:38:47.360Z,100643.58
2019-01-21T20:41:31.656Z,100646.09
2019-01-21T20:44:10.003Z,100647.16
2019-01-21T20:46:43.229Z,100650.71
2019-01-21T20:49:18.931Z,100649.04
2019-01-21T20:51:52.706Z,100646.05
2019-01-21T20:54:40.892Z,100643.81
2019-01-21T20:57:15.360Z,100639.33
2019-01-21T20:59:54.287Z,100649.58
2019-01-21T21:02:31.534Z,100645.12
2019-01-21T21:05:05.215Z,100643.56
2019-01-21T21:07:38.542Z,100637.59
2019-01-21T21:10:11.280Z,100641.35
2019-01-21T21:12:40.746Z,100645.62
2019-01-21T21:15:15.106Z,100650.00
2019-01-21T21:17:50.386Z,100648.52
2019-01-21T21:20:22.447Z,100646.14
2019-01-21T21:22:53.861Z,100640.44
2019-01-21T21:25:28.775Z,100636.91
2019-01-21T21:28:11.203Z,100636.77
2019-01-21T21:30:50.414Z,100635.20
2019-01-21T21:33:21.884Z,100629.77
2019-01-21T21:35:51.793Z,100620.34
2019-01-21T21:38:23.595Z,100628.54
2019-01-21T21:40:55.683Z,100624.80
2019-01-21T21:43:28.390Z,100620.78
2019-01-21T21:46:02.332Z,100621.79
2019-01-21T21:48:33.130Z,100618.22
2019-01-21T21:51:12.252Z,100620.18
2019-01-21T21:53:45.292Z,100612.16
2019-01-21T21:56:22.240Z,100612.48
2019-01-21T21:58:53.111Z,100610.35
2019-01-21T22:01:25.829Z,100608.22
2019-01-21T22:03:59.893Z,100600.83
2019-01-21T22:06:30.896Z,100600.34
2019-01-21T22:09:01.339Z,100603.75
2019-01-21T22:11:34.360Z,100603.20
2019-01-21T22:14:04.164Z,100608.87
2019-01-21T22:16:33.730Z,100603.00
2019-01-21T22:19:09.768Z,100594.47
2019-01-21T22:21:44.760Z,100598.53
2019-01-21T22:24:14.265Z,100585.70
2019-01-21T22:26:44.150Z,100582.53
2019-01-21T22:29:13.619Z,100577.67
2019-01-21T22:31:42.746Z,100582.03
2019-01-21T22:34:13.945Z,100570.09
2019-01-21T22:36:42.837Z,100567.65
2019-01-21T22:39:12.489Z,100571.81
2019-01-21T22:41:41.917Z,100572.08
2019-01-21T22:44:11.161Z,100564.62
2019-01-21T22:46:40.525Z,100564.39
2019-01-21T22:49:10.124Z,100565.13
2019-01-21T22:51:45.235Z,100554.22
2019-01-21T22:54:14.183Z,100560.61
2019-01-21T22:56:46.918Z,100557.69
2019-01-21T22:59:20.493Z,100555.08
2019-01-21T23:01:50.158Z,100554.84
2019-01-21T23:04:20.089Z,100552.23
2019-01-21T23:06:50.898Z,100549.56
2019-01-21T23:09:19.799Z,100549.20
2019-01-21T23:11:52.421Z,100542.05
2019-01-21T23:14:21.938Z,100539.52
2019-01-21T23:16:53.713Z,100541.33
2019-01-21T23:19:26.994Z,100536.84
2019-01-21T23:21:56.548Z,100533.97
2019-01-21T23:24:29.123Z,100539.52
2019-01-21T23:27:04.588Z,100541.23
2019-01-21T23:29:34.033Z,100531.13
2019-01-21T23:32:04.082Z,100526.86
2019-01-21T23:34:35.616Z,100523.86
2019-01-21T23:37:05.913Z,100514.06
2019-01-21T23:39:35.589Z,100512.67
2019-01-21T23:42:06.401Z,100505.56
2019-01-21T23:44:40.205Z,100501.91
2019-01-21T23:47:09.842Z,100498.77
2019-01-21T23:49:42.268Z,100495.91
2019-01-21T23:52:14.107Z,100493.06
2019-01-21T23:54:46.267Z,100483.97
2019-01-21T23:57:16.170Z,100489.14
2019-01-21T23:59:48.532Z,100486.14
